Time;durP1;ratioP1;P1;durP2;ratioP2;P2;SDS_P1;SDS_P2;PMS_P1;PMS_P2;Temp;Humidity;BMP_temperature;BMP_pressure;BME280_temperature;BME280_humidity;BME280_pressure;Samples;Min_cycle;Max_cycle;Signal;HPM_P1;HPM_P2
2023/11/29 00:00:15;;;;;;;17.90;13.80;;;2.20;52.60;;;;;;5082720;28;20520;-75
2023/11/29 00:02:41;;;;;;;18.50;14.55;;;2.10;54.60;;;;;;5072970;28;20862;-74
2023/11/29 00:05:08;;;;;;;16.95;14.00;;;2.10;53.20;;;;;;5074866;28;20395;-74
2023/11/29 00:07:34;;;;;;;18.50;14.57;;;2.10;53.90;;;;;;5074671;28;20746;-74
2023/11/29 00:09:59;;;;;;;17.85;14.25;;;2.00;53.40;;;;;;5073808;28;20423;-73
2023/11/29 00:12:25;;;;;;;18.23;14.00;;;2.00;54.30;;;;;;5074530;28;20449;-74
2023/11/29 00:14:51;;;;;;;18.27;13.83;;;2.20;53.20;;;;;;5075546;28;20731;-74
2023/11/29 00:17:16;;;;;;;16.95;14.05;;;2.10;52.20;;;;;;5075337;28;20513;-73
2023/11/29 00:19:43;;;;;;;18.20;14.00;;;2.10;51.80;;;;;;5077116;28;20394;-75
2023/11/29 00:22:10;;;;;;;17.00;13.40;;;2.20;52.70;;;;;;5076787;28;20386;-74
2023/11/29 00:24:35;;;;;;;15.68;13.38;;;2.30;51.70;;;;;;5077017;28;20387;-73
2023/11/29 00:27:01;;;;;;;17.08;13.45;;;2.20;52.30;;;;;;5075004;28;20388;-73
2023/11/29 00:29:27;;;;;;;15.77;12.40;;;2.30;51.20;;;;;;5075672;28;20398;-72
2023/11/29 00:31:53;;;;;;;17.13;13.43;;;2.30;50.10;;;;;;5076271;28;20753;-74
2023/11/29 00:34:18;;;;;;;15.90;12.65;;;2.30;51.00;;;;;;5085011;28;20392;-72
2023/11/29 00:36:46;;;;;;;16.50;12.60;;;2.20;50.10;;;;;;5092381;28;20477;-73
2023/11/29 00:39:12;;;;;;;16.83;13.40;;;2.20;50.30;;;;;;5092799;28;20380;-74
2023/11/29 00:41:37;;;;;;;17.00;13.33;;;2.20;49.90;;;;;;5091703;28;20766;-74
2023/11/29 00:44:03;;;;;;;16.15;13.13;;;2.10;51.00;;;;;;5091901;28;20394;-71
2023/11/29 00:46:29;;;;;;;17.15;11.90;;;2.10;50.70;;;;;;5091105;28;20395;-73
2023/11/29 00:48:54;;;;;;;14.20;12.00;;;2.10;49.80;;;;;;5091374;28;20406;-73
2023/11/29 00:51:20;;;;;;;15.40;12.07;;;2.10;50.70;;;;;;5088757;28;20402;-74
2023/11/29 00:53:45;;;;;;;16.25;12.18;;;2.10;50.00;;;;;;5086422;28;20400;-73
2023/11/29 00:56:11;;;;;;;17.00;13.18;;;2.10;50.40;;;;;;5088277;28;20395;-74
2023/11/29 00:58:37;;;;;;;15.63;11.80;;;2.10;51.10;;;;;;5075731;28;20407;-72
2023/11/29 01:01:03;;;;;;;14.90;11.47;;;2.10;50.50;;;;;;5074628;28;20434;-74
2023/11/29 01:03:29;;;;;;;13.80;11.85;;;2.20;49.70;;;;;;5071502;28;20901;-74
2023/11/29 01:05:54;;;;;;;13.17;11.30;;;2.20;48.50;;;;;;5072910;28;20384;-74
2023/11/29 01:08:25;;;;;;;13.80;11.02;;;2.10;49.30;;;;;;5074659;28;20423;-73
2023/11/29 01:10:53;;;;;;;14.57;11.30;;;2.10;50.50;;;;;;5076193;28;20883;-74
2023/11/29 01:13:20;;;;;;;13.98;11.30;;;2.10;48.90;;;;;;5074497;28;20384;-73
2023/11/29 01:15:49;;;;;;;14.70;11.38;;;2.10;48.70;;;;;;5072379;28;20384;-74
2023/11/29 01:18:15;;;;;;;14.75;11.90;;;2.00;50.10;;;;;;5072137;28;20461;-74
2023/11/29 01:20:42;;;;;;;15.00;11.70;;;2.00;50.00;;;;;;5071508;28;20846;-72
2023/11/29 01:23:07;;;;;;;14.60;10.98;;;1.90;50.70;;;;;;5071985;28;20425;-74
2023/11/29 01:25:34;;;;;;;14.35;10.75;;;2.00;51.00;;;;;;5072155;28;20474;-73
2023/11/29 01:28:00;;;;;;;14.02;10.98;;;2.10;49.40;;;;;;5072346;28;20897;-74
2023/11/29 01:30:26;;;;;;;13.57;11.48;;;2.00;49.50;;;;;;5071598;28;20472;-74
2023/11/29 01:32:52;;;;;;;13.95;11.35;;;1.80;51.20;;;;;;5070654;28;20450;-74
2023/11/29 01:35:18;;;;;;;15.05;11.40;;;1.80;50.90;;;;;;5072246;28;20394;-76
2023/11/29 01:37:43;;;;;;;14.30;11.50;;;1.90;51.10;;;;;;5071691;28;20403;-74
2023/11/29 01:40:09;;;;;;;13.67;11.13;;;2.00;50.80;;;;;;5071901;28;20419;-73
2023/11/29 01:42:36;;;;;;;14.32;11.65;;;2.10;50.50;;;;;;5072454;28;20391;-74
2023/11/29 01:45:03;;;;;;;13.77;11.70;;;2.30;49.60;;;;;;5073310;28;20387;-76
2023/11/29 01:47:33;;;;;;;15.93;11.60;;;2.20;49.90;;;;;;5072574;28;20414;-75
2023/11/29 01:50:03;;;;;;;15.00;11.98;;;2.20;49.10;;;;;;5072331;28;20445;-74
2023/11/29 01:52:30;;;;;;;17.35;12.10;;;2.00;50.10;;;;;;5071921;28;20890;-74
2023/11/29 01:54:56;;;;;;;18.02;12.50;;;2.00;51.20;;;;;;5072500;28;20384;-74
2023/11/29 01:57:22;;;;;;;16.10;12.10;;;1.80;52.60;;;;;;5071962;28;20407;-73
2023/11/29 01:59:48;;;;;;;15.73;12.50;;;1.80;53.80;;;;;;5072679;28;20728;-74
2023/11/29 02:02:14;;;;;;;15.73;12.43;;;1.70;54.00;;;;;;5071605;28;20399;-74
2023/11/29 02:04:39;;;;;;;16.15;12.43;;;1.50;55.10;;;;;;5072481;28;20375;-74
2023/11/29 02:07:05;;;;;;;16.88;12.75;;;1.40;57.10;;;;;;5071497;28;20467;-72
2023/11/29 02:09:31;;;;;;;13.90;11.73;;;1.40;57.80;;;;;;5071928;28;20428;-74
2023/11/29 02:11:57;;;;;;;16.73;12.48;;;1.50;58.60;;;;;;5072277;28;20409;-74
2023/11/29 02:14:23;;;;;;;15.77;12.30;;;1.50;58.40;;;;;;5071513;28;20380;-73
2023/11/29 02:16:49;;;;;;;15.90;12.48;;;1.60;57.90;;;;;;5071252;28;20384;-74
2023/11/29 02:19:14;;;;;;;17.37;13.13;;;1.40;59.10;;;;;;5070980;28;20874;-72
2023/11/29 02:21:41;;;;;;;16.10;12.90;;;1.30;60.70;;;;;;5071019;28;20437;-73
2023/11/29 02:24:17;;;;;;;16.13;12.85;;;1.40;62.10;;;;;;5071297;28;20376;-73
2023/11/29 02:26:43;;;;;;;17.15;13.05;;;1.50;61.80;;;;;;5071138;28;20375;-73
2023/11/29 02:29:09;;;;;;;15.88;12.60;;;1.60;61.50;;;;;;5071681;28;20449;-73
2023/11/29 02:31:35;;;;;;;16.15;12.60;;;1.70;60.50;;;;;;5071094;28;20463;-74
2023/11/29 02:34:03;;;;;;;16.77;13.17;;;1.70;60.30;;;;;;5069807;28;20481;-73
2023/11/29 02:36:29;;;;;;;18.33;13.38;;;1.80;59.90;;;;;;5071062;28;20387;-75
2023/11/29 02:38:55;;;;;;;16.35;13.73;;;1.80;60.10;;;;;;5071058;28;20414;-73
2023/11/29 02:41:20;;;;;;;16.40;13.00;;;1.90;59.80;;;;;;5071975;28;20403;-73
2023/11/29 02:43:50;;;;;;;16.70;13.10;;;1.90;59.70;;;;;;5071042;28;20471;-75
2023/11/29 02:46:16;;;;;;;16.55;13.40;;;2.00;60.50;;;;;;5071140;28;20430;-73
2023/11/29 02:48:42;;;;;;;16.60;12.90;;;2.00;61.20;;;;;;5071034;28;20399;-73
2023/11/29 02:51:07;;;;;;;18.93;14.10;;;2.00;62.20;;;;;;5070864;28;20441;-74
2023/11/29 02:53:33;;;;;;;20.43;14.27;;;2.10;62.10;;;;;;5069389;28;20398;-73
2023/11/29 02:55:58;;;;;;;18.20;13.33;;;2.00;62.70;;;;;;5071219;28;20467;-73
2023/11/29 02:58:24;;;;;;;19.23;14.90;;;2.20;63.10;;;;;;5069644;28;20983;-74
2023/11/29 03:00:49;;;;;;;18.35;13.93;;;2.40;61.60;;;;;;5069662;28;20388;-74
2023/11/29 03:03:15;;;;;;;22.52;14.23;;;2.60;60.10;;;;;;5070757;28;20388;-76
2023/11/29 03:05:41;;;;;;;19.77;14.75;;;2.60;60.30;;;;;;5071182;28;20521;-73
2023/11/29 03:08:07;;;;;;;17.67;13.50;;;2.60;61.00;;;;;;5070709;28;20784;-73
2023/11/29 03:10:33;;;;;;;20.85;14.23;;;2.60;61.10;;;;;;5070619;28;20376;-74
2023/11/29 03:12:59;;;;;;;19.67;14.45;;;2.60;60.60;;;;;;5070753;28;20427;-73
2023/11/29 03:15:25;;;;;;;18.27;14.00;;;2.60;61.30;;;;;;5070515;28;20413;-73
2023/11/29 03:17:50;;;;;;;20.83;13.47;;;2.70;61.60;;;;;;5069083;28;20403;-73
2023/11/29 03:20:16;;;;;;;17.60;13.90;;;2.70;61.30;;;;;;5070768;28;20376;-73
2023/11/29 03:22:41;;;;;;;17.15;13.10;;;2.70;61.30;;;;;;5078382;28;20407;-74
2023/11/29 03:25:07;;;;;;;18.20;13.50;;;2.80;59.00;;;;;;5080780;28;20394;-74
2023/11/29 03:27:33;;;;;;;18.52;12.90;;;2.80;59.50;;;;;;5075966;28;20411;-74
2023/11/29 03:29:59;;;;;;;16.65;12.50;;;2.80;58.20;;;;;;5074806;28;20491;-74
2023/11/29 03:32:26;;;;;;;18.75;13.88;;;3.10;56.30;;;;;;5075648;28;20415;-74
2023/11/29 03:34:54;;;;;;;19.10;12.80;;;2.90;57.20;;;;;;5076568;28;20996;-74
2023/11/29 03:37:20;;;;;;;17.77;13.70;;;2.80;58.70;;;;;;5074168;28;20407;-73
2023/11/29 03:39:46;;;;;;;19.38;13.45;;;2.80;59.30;;;;;;5074106;28;20372;-73
2023/11/29 03:42:11;;;;;;;16.97;12.90;;;2.90;60.10;;;;;;5074161;28;20384;-74
2023/11/29 03:44:37;;;;;;;22.03;16.50;;;3.10;59.60;;;;;;5075855;28;20378;-75
2023/11/29 03:47:03;;;;;;;19.55;14.20;;;3.20;57.60;;;;;;5075095;28;20406;-75
2023/11/29 03:49:28;;;;;;;23.35;14.80;;;3.10;58.40;;;;;;5073316;28;20404;-73
2023/11/29 03:51:54;;;;;;;18.47;13.77;;;3.30;58.20;;;;;;5073463;28;20399;-74
2023/11/29 03:54:19;;;;;;;23.93;15.10;;;3.40;59.20;;;;;;5073570;28;20837;-73
2023/11/29 03:56:45;;;;;;;20.60;14.33;;;3.50;57.70;;;;;;5073874;28;20904;-74
2023/11/29 03:59:10;;;;;;;18.90;14.30;;;3.70;55.20;;;;;;5073973;28;20384;-72
2023/11/29 04:01:36;;;;;;;20.90;15.40;;;3.80;55.30;;;;;;5073563;28;20854;-73
2023/11/29 04:04:01;;;;;;;22.20;15.30;;;3.80;56.70;;;;;;5073497;28;20467;-73
2023/11/29 04:06:28;;;;;;;24.27;15.63;;;3.70;57.10;;;;;;5073312;28;20766;-73
2023/11/29 04:08:54;;;;;;;25.63;16.35;;;3.50;59.90;;;;;;5073832;28;20389;-73
2023/11/29 04:11:21;;;;;;;23.27;16.77;;;3.40;61.40;;;;;;5073148;28;20445;-72
2023/11/29 04:13:46;;;;;;;22.30;16.75;;;3.20;64.10;;;;;;5072759;28;20835;-74
2023/11/29 04:16:23;;;;;;;24.73;16.90;;;3.10;66.80;;;;;;5072978;28;20465;-74
2023/11/29 04:18:50;;;;;;;22.50;16.30;;;3.00;70.50;;;;;;5073135;28;20407;-74
2023/11/29 04:21:35;;;;;;;25.70;16.00;;;3.00;70.70;;;;;;5073174;28;20750;-74
2023/11/29 04:24:01;;;;;;;23.90;16.85;;;3.10;71.00;;;;;;5071433;28;20388;-73
2023/11/29 04:26:35;;;;;;;23.67;16.65;;;3.10;70.90;;;;;;5073165;28;20380;-74
2023/11/29 04:29:02;;;;;;;24.25;17.23;;;3.10;72.20;;;;;;5071865;28;20426;-74
2023/11/29 04:31:29;;;;;;;26.92;18.27;;;3.10;70.20;;;;;;5072944;28;20541;-73
2023/11/29 04:33:55;;;;;;;27.17;17.05;;;3.00;71.20;;;;;;5072929;28;20812;-74
2023/11/29 04:36:21;;;;;;;24.20;16.85;;;3.00;71.60;;;;;;5072519;28;20510;-73
2023/11/29 04:38:48;;;;;;;25.50;18.17;;;3.00;72.70;;;;;;5072644;28;20404;-73
2023/11/29 04:41:14;;;;;;;25.90;18.10;;;2.80;73.20;;;;;;5072389;28;20402;-74
2023/11/29 04:43:40;;;;;;;30.95;19.15;;;2.70;76.50;;;;;;5072619;28;20894;-74
2023/11/29 04:46:06;;;;;;;29.27;20.20;;;2.60;78.80;;;;;;5070808;28;20391;-74
2023/11/29 04:48:31;;;;;;;31.93;20.30;;;2.60;81.00;;;;;;5072100;28;20388;-74
2023/11/29 04:50:57;;;;;;;31.02;20.98;;;2.50;82.90;;;;;;5072409;28;20858;-74
2023/11/29 04:53:23;;;;;;;28.25;19.23;;;2.40;85.90;;;;;;5071811;28;20420;-73
2023/11/29 04:55:52;;;;;;;26.77;18.87;;;2.60;82.20;;;;;;5072019;28;20492;-73
2023/11/29 04:58:17;;;;;;;26.90;19.40;;;2.70;82.50;;;;;;5070415;28;20415;-74
2023/11/29 05:00:43;;;;;;;26.17;18.70;;;2.60;82.40;;;;;;5072266;28;20754;-73
2023/11/29 05:03:08;;;;;;;28.00;19.00;;;2.70;82.80;;;;;;5071968;28;20372;-74
2023/11/29 05:05:34;;;;;;;29.73;20.25;;;2.70;83.50;;;;;;5072200;28;20387;-73
2023/11/29 05:07:59;;;;;;;29.33;19.70;;;2.60;84.70;;;;;;5071837;28;20897;-73
2023/11/29 05:10:25;;;;;;;26.60;19.30;;;2.60;85.70;;;;;;5071926;28;20504;-74
2023/11/29 05:12:50;;;;;;;29.50;18.50;;;2.60;85.50;;;;;;5072126;28;20711;-74
2023/11/29 05:15:16;;;;;;;28.87;19.10;;;2.70;84.60;;;;;;5071238;28;20384;-74
2023/11/29 05:17:41;;;;;;;25.00;17.77;;;2.70;85.10;;;;;;5071781;28;20403;-74
2023/11/29 05:20:09;;;;;;;25.73;17.90;;;2.80;83.80;;;;;;5071599;28;20432;-73
2023/11/29 05:22:35;;;;;;;27.92;18.73;;;2.90;83.20;;;;;;5071568;28;20677;-74
2023/11/29 05:25:00;;;;;;;27.00;18.30;;;2.90;82.60;;;;;;5071612;28;20466;-74
2023/11/29 05:27:26;;;;;;;27.80;17.98;;;3.00;80.10;;;;;;5071001;28;20418;-74
2023/11/29 05:29:51;;;;;;;28.30;18.70;;;3.10;79.20;;;;;;5071271;28;20392;-73
2023/11/29 05:32:17;;;;;;;23.87;18.10;;;3.10;79.80;;;;;;5070808;28;20445;-74
2023/11/29 05:34:43;;;;;;;24.23;17.20;;;3.10;79.00;;;;;;5071634;28;20434;-73
2023/11/29 05:37:09;;;;;;;27.00;18.50;;;3.00;79.70;;;;;;5071458;28;20411;-74
2023/11/29 05:39:34;;;;;;;26.57;18.47;;;3.00;80.40;;;;;;5073583;28;20376;-74
2023/11/29 05:42:03;;;;;;;25.55;17.70;;;3.00;80.00;;;;;;5072228;28;20420;-73
2023/11/29 05:44:31;;;;;;;23.43;17.23;;;3.00;80.30;;;;;;5071907;28;20441;-74
2023/11/29 05:46:57;;;;;;;27.88;18.02;;;2.90;81.80;;;;;;5070959;28;20444;-74
2023/11/29 05:49:23;;;;;;;27.75;19.00;;;2.90;82.00;;;;;;5071339;28;20380;-74
2023/11/29 05:51:48;;;;;;;28.57;19.43;;;2.90;82.30;;;;;;5070819;28;20450;-73
2023/11/29 05:54:14;;;;;;;31.23;19.17;;;2.90;82.00;;;;;;5072018;28;20395;-73
2023/11/29 05:56:39;;;;;;;25.98;19.33;;;2.90;82.30;;;;;;5072141;28;20854;-73
2023/11/29 05:59:05;;;;;;;30.38;19.70;;;2.90;82.30;;;;;;5072177;28;20431;-74
2023/11/29 06:01:31;;;;;;;27.02;19.30;;;2.80;83.30;;;;;;5070807;28;20392;-74
2023/11/29 06:03:57;;;;;;;29.95;19.38;;;2.80;83.90;;;;;;5071898;28;20380;-73
2023/11/29 06:06:23;;;;;;;31.98;20.70;;;2.90;84.10;;;;;;5072146;28;20793;-73
2023/11/29 06:08:48;;;;;;;27.80;19.90;;;2.90;83.20;;;;;;5071564;28;20486;-74
2023/11/29 06:11:14;;;;;;;31.33;20.70;;;2.90;81.80;;;;;;5071032;28;20391;-73
2023/11/29 06:13:41;;;;;;;27.73;19.70;;;2.80;83.50;;;;;;5071059;28;20393;-73
2023/11/29 06:16:07;;;;;;;30.88;20.00;;;2.80;84.20;;;;;;5069938;28;20391;-74
2023/11/29 06:18:33;;;;;;;31.52;20.08;;;2.80;84.20;;;;;;5072754;28;20790;-75
2023/11/29 06:20:58;;;;;;;32.00;20.50;;;2.80;85.00;;;;;;5070852;28;20384;-73
2023/11/29 06:23:25;;;;;;;29.23;20.23;;;2.80;85.80;;;;;;5071837;28;20386;-74
2023/11/29 06:25:51;;;;;;;29.73;19.15;;;2.80;86.10;;;;;;5071772;28;20382;-74
2023/11/29 06:28:17;;;;;;;27.75;18.70;;;2.90;84.50;;;;;;5071347;28;20790;-76
2023/11/29 06:30:43;;;;;;;26.17;18.40;;;3.00;84.30;;;;;;5071342;28;20440;-73
2023/11/29 06:33:08;;;;;;;24.63;18.70;;;3.10;81.10;;;;;;5070948;28;20419;-74
2023/11/29 06:35:34;;;;;;;26.10;17.98;;;3.10;81.40;;;;;;5070047;28;20718;-73
2023/11/29 06:37:59;;;;;;;23.03;16.80;;;3.20;80.40;;;;;;5070817;28;20815;-72
2023/11/29 06:40:25;;;;;;;24.10;16.30;;;3.30;79.70;;;;;;5069301;28;20422;-75
2023/11/29 06:42:51;;;;;;;22.00;16.00;;;3.40;78.00;;;;;;5070857;28;20403;-74
2023/11/29 06:45:19;;;;;;;23.25;16.60;;;3.50;76.80;;;;;;5069702;28;20423;-73
2023/11/29 06:47:45;;;;;;;23.30;16.60;;;3.50;77.90;;;;;;5069524;28;20907;-73
2023/11/29 06:50:10;;;;;;;23.27;16.50;;;3.50;78.70;;;;;;5070748;28;20866;-73
2023/11/29 06:52:37;;;;;;;23.60;16.70;;;3.50;77.10;;;;;;5070730;28;20448;-73
2023/11/29 06:55:02;;;;;;;24.20;16.40;;;3.60;75.60;;;;;;5071353;28;20375;-74
2023/11/29 06:57:28;;;;;;;25.13;16.60;;;3.70;73.90;;;;;;5070782;28;20525;-73
2023/11/29 06:59:53;;;;;;;23.27;16.50;;;3.70;75.30;;;;;;5071297;28;20376;-74
2023/11/29 07:02:19;;;;;;;20.42;15.15;;;3.70;75.30;;;;;;5070710;28;20814;-74
2023/11/29 07:04:45;;;;;;;23.48;16.02;;;3.70;74.60;;;;;;5071553;28;20754;-74
2023/11/29 07:07:11;;;;;;;19.83;14.50;;;3.80;74.20;;;;;;5070194;28;20848;-74
2023/11/29 07:09:37;;;;;;;22.25;15.50;;;3.80;73.00;;;;;;5073464;28;20380;-74
2023/11/29 07:12:05;;;;;;;21.83;15.80;;;3.70;74.90;;;;;;5075665;28;20394;-74
2023/11/29 07:14:30;;;;;;;23.13;15.60;;;3.70;74.80;;;;;;5075612;28;20380;-74
2023/11/29 07:16:56;;;;;;;19.40;15.77;;;3.70;76.40;;;;;;5075878;28;20480;-74
2023/11/29 07:19:22;;;;;;;20.90;15.70;;;3.80;75.30;;;;;;5091231;28;20423;-73
2023/11/29 07:21:47;;;;;;;21.10;15.23;;;3.80;74.80;;;;;;5082280;28;20388;-75
2023/11/29 07:24:13;;;;;;;21.05;15.20;;;3.80;73.90;;;;;;5061994;28;20389;-74
2023/11/29 07:26:39;;;;;;;18.77;15.35;;;3.90;73.70;;;;;;5062040;28;20468;-73
2023/11/29 07:29:05;;;;;;;22.53;16.27;;;3.90;74.30;;;;;;5074104;28;20386;-73
2023/11/29 07:31:33;;;;;;;19.90;15.43;;;3.80;75.80;;;;;;5076598;28;20896;-74
2023/11/29 07:33:58;;;;;;;21.40;15.20;;;3.80;75.20;;;;;;5075237;28;20391;-73
2023/11/29 07:36:24;;;;;;;22.40;15.53;;;3.90;73.90;;;;;;5073228;28;20399;-73
2023/11/29 07:38:50;;;;;;;24.65;15.77;;;3.90;75.00;;;;;;5074340;28;20415;-73
2023/11/29 07:41:17;;;;;;;20.77;15.20;;;3.90;77.40;;;;;;5073826;28;20380;-73
2023/11/29 07:43:43;;;;;;;20.25;15.32;;;3.90;78.00;;;;;;5073961;28;20445;-74
2023/11/29 07:46:10;;;;;;;21.47;15.23;;;3.90;77.50;;;;;;5076815;28;20961;-74
2023/11/29 07:48:36;;;;;;;19.02;14.60;;;3.90;75.30;;;;;;5064713;28;20407;-76
2023/11/29 07:51:02;;;;;;;19.85;15.73;;;4.00;73.80;;;;;;5075675;28;20396;-74
2023/11/29 07:53:28;;;;;;;20.48;15.32;;;3.80;76.10;;;;;;5053780;28;20484;-75
2023/11/29 07:55:54;;;;;;;17.02;14.40;;;3.90;77.60;;;;;;5072145;28;20509;-73
2023/11/29 07:58:20;;;;;;;21.63;16.40;;;3.90;77.10;;;;;;5072014;28;20503;-73
2023/11/29 08:00:46;;;;;;;23.20;16.38;;;3.90;77.00;;;;;;5071745;28;20900;-74
2023/11/29 08:03:12;;;;;;;20.38;15.18;;;4.00;76.90;;;;;;5071040;28;20483;-72
2023/11/29 08:05:38;;;;;;;22.83;14.93;;;4.00;73.30;;;;;;5069923;28;20461;-75
2023/11/29 08:08:04;;;;;;;20.20;15.48;;;4.00;73.50;;;;;;5071444;28;20391;-74
2023/11/29 08:10:30;;;;;;;19.00;14.85;;;4.00;74.20;;;;;;5083322;28;20408;-74
2023/11/29 08:12:58;;;;;;;18.20;13.40;;;4.10;74.10;;;;;;5071931;28;20704;-74
2023/11/29 08:15:23;;;;;;;21.40;14.10;;;4.20;71.20;;;;;;5071611;28;20908;-75
2023/11/29 08:17:49;;;;;;;16.40;13.50;;;4.20;71.40;;;;;;5075188;28;20455;-75
2023/11/29 08:20:14;;;;;;;19.75;13.77;;;4.20;70.90;;;;;;5091709;28;20386;-75
2023/11/29 08:22:40;;;;;;;19.13;14.32;;;4.20;70.50;;;;;;5088808;28;20465;-75
2023/11/29 08:25:06;;;;;;;19.42;13.65;;;4.20;71.50;;;;;;5097976;28;20387;-73
2023/11/29 08:27:32;;;;;;;16.05;11.90;;;4.20;71.10;;;;;;5083048;28;20447;-73
2023/11/29 08:29:57;;;;;;;16.08;12.38;;;4.30;69.60;;;;;;5084055;28;20885;-73
2023/11/29 08:32:23;;;;;;;14.03;11.20;;;4.30;69.20;;;;;;5072275;28;20447;-75
2023/11/29 08:34:49;;;;;;;15.87;12.30;;;4.30;69.50;;;;;;5071682;28;20387;-74
2023/11/29 08:37:16;;;;;;;15.70;11.37;;;4.30;68.80;;;;;;5071525;28;20902;-74
2023/11/29 08:39:42;;;;;;;18.65;12.57;;;4.30;69.00;;;;;;5083327;28;20402;-74
2023/11/29 08:42:07;;;;;;;14.90;10.63;;;4.30;70.10;;;;;;5079172;28;20382;-74
2023/11/29 08:44:33;;;;;;;14.97;11.40;;;4.40;68.20;;;;;;5071298;28;20387;-73
2023/11/29 08:46:58;;;;;;;15.07;10.77;;;4.40;69.00;;;;;;5071215;28;20380;-75
2023/11/29 08:49:24;;;;;;;16.83;11.02;;;4.40;70.00;;;;;;5073581;28;20391;-72
2023/11/29 08:51:49;;;;;;;13.85;9.85;;;4.40;69.20;;;;;;5095009;28;20410;-75
2023/11/29 08:54:15;;;;;;;13.07;9.83;;;4.50;66.60;;;;;;5076765;28;20473;-74
2023/11/29 08:56:41;;;;;;;36.13;24.70;;;4.60;66.00;;;;;;5069437;28;20396;-74
2023/11/29 08:59:06;;;;;;;12.67;9.80;;;4.60;67.20;;;;;;5097264;28;20397;-74
2023/11/29 09:01:32;;;;;;;13.55;11.20;;;4.60;65.50;;;;;;5108198;28;20389;-78
2023/11/29 09:03:58;;;;;;;12.95;10.07;;;4.60;66.30;;;;;;5097737;28;20810;-77
2023/11/29 09:06:24;;;;;;;13.10;9.38;;;4.60;66.50;;;;;;5095567;28;20382;-76
2023/11/29 09:08:50;;;;;;;14.93;12.07;;;4.70;64.90;;;;;;5096362;28;20774;-78
2023/11/29 09:11:16;;;;;;;12.02;9.25;;;4.80;65.40;;;;;;5093716;28;20802;-79
2023/11/29 09:13:44;;;;;;;14.00;10.00;;;4.90;64.60;;;;;;5094154;28;20394;-77
2023/11/29 09:16:11;;;;;;;13.00;8.95;;;4.90;62.70;;;;;;5095480;28;20493;-75
2023/11/29 09:18:36;;;;;;;10.73;9.57;;;4.80;63.90;;;;;;5077996;28;20544;-73
2023/11/29 09:21:02;;;;;;;11.65;9.40;;;4.70;65.60;;;;;;5071866;28;20890;-74
2023/11/29 09:23:28;;;;;;;12.43;9.83;;;4.70;66.30;;;;;;5071483;28;20719;-73
2023/11/29 09:25:54;;;;;;;12.03;9.73;;;4.60;69.00;;;;;;5070453;28;20399;-74
2023/11/29 09:28:19;;;;;;;14.48;9.48;;;4.70;68.80;;;;;;5071327;28;20894;-74
2023/11/29 09:30:45;;;;;;;12.57;9.35;;;4.70;69.00;;;;;;5071718;28;20797;-74
2023/11/29 09:33:11;;;;;;;11.77;8.80;;;4.60;67.50;;;;;;5072336;28;20762;-73
2023/11/29 09:35:37;;;;;;;12.73;9.23;;;4.60;68.40;;;;;;5072475;28;20388;-73
2023/11/29 09:38:04;;;;;;;11.82;8.27;;;4.50;68.80;;;;;;5077265;28;20428;-74
2023/11/29 09:40:30;;;;;;;9.93;8.93;;;4.50;69.20;;;;;;5080486;28;20404;-72
2023/11/29 09:42:56;;;;;;;10.05;8.48;;;4.40;69.50;;;;;;5079400;28;20907;-73
2023/11/29 09:45:28;;;;;;;11.73;8.48;;;4.40;69.80;;;;;;5081180;28;20471;-74
2023/11/29 09:47:57;;;;;;;11.40;8.45;;;4.50;68.80;;;;;;5087597;28;20481;-74
2023/11/29 09:50:27;;;;;;;9.13;8.20;;;4.60;69.10;;;;;;5093518;28;20537;-74
2023/11/29 09:52:54;;;;;;;12.73;9.07;;;4.60;69.30;;;;;;5087390;28;20405;-74
2023/11/29 09:55:20;;;;;;;10.27;8.35;;;4.80;66.30;;;;;;5082726;28;20445;-74
2023/11/29 09:57:46;;;;;;;8.57;7.68;;;4.90;64.40;;;;;;5077530;28;20402;-75
2023/11/29 10:00:15;;;;;;;10.43;8.68;;;5.00;62.90;;;;;;5077049;28;20866;-75
2023/11/29 10:02:41;;;;;;;8.98;7.43;;;5.00;62.90;;;;;;5076092;28;20376;-72
2023/11/29 10:05:08;;;;;;;9.48;7.88;;;5.00;61.60;;;;;;5076384;28;20387;-73
2023/11/29 10:07:34;;;;;;;13.63;8.45;;;5.00;61.80;;;;;;5077298;28;20466;-74
2023/11/29 10:10:01;;;;;;;9.33;7.73;;;5.00;63.30;;;;;;5075697;28;20404;-73
2023/11/29 10:12:26;;;;;;;11.03;8.37;;;5.00;63.10;;;;;;5076046;28;20390;-74
2023/11/29 10:14:53;;;;;;;11.48;8.88;;;4.90;62.40;;;;;;5074784;28;20887;-73
2023/11/29 10:17:19;;;;;;;11.48;8.40;;;4.90;64.70;;;;;;5073974;28;20411;-74
2023/11/29 10:19:46;;;;;;;9.40;7.97;;;4.80;64.70;;;;;;5072152;28;20748;-74
2023/11/29 10:22:16;;;;;;;10.20;8.40;;;4.80;64.10;;;;;;5070412;28;20472;-75
2023/11/29 10:24:41;;;;;;;11.20;8.10;;;4.80;63.60;;;;;;5075421;28;20379;-74
2023/11/29 10:27:08;;;;;;;10.30;8.63;;;4.90;64.40;;;;;;5076199;28;20371;-73
2023/11/29 10:29:34;;;;;;;12.00;8.32;;;4.90;64.70;;;;;;5076117;28;20380;-73
2023/11/29 10:32:04;;;;;;;9.18;8.18;;;5.10;62.80;;;;;;5075607;28;20395;-74
2023/11/29 10:34:34;;;;;;;11.65;7.53;;;5.10;63.10;;;;;;5077227;28;20380;-75
2023/11/29 10:37:02;;;;;;;8.32;6.88;;;5.10;59.50;;;;;;5080036;28;20450;-74
2023/11/29 10:39:30;;;;;;;8.82;7.40;;;5.00;61.20;;;;;;5079897;28;20376;-74
2023/11/29 10:41:58;;;;;;;10.60;8.65;;;5.10;61.80;;;;;;5080209;28;20406;-74
2023/11/29 10:44:34;;;;;;;9.87;7.50;;;5.00;61.60;;;;;;5074631;28;20388;-74
2023/11/29 10:47:26;;;;;;;8.80;7.37;;;5.10;61.00;;;;;;5075131;28;20388;-74
2023/11/29 10:50:06;;;;;;;8.55;7.65;;;5.30;60.60;;;;;;5078485;28;20386;-75
2023/11/29 10:52:33;;;;;;;10.10;7.60;;;5.40;57.70;;;;;;5078531;28;20444;-74
2023/11/29 10:55:00;;;;;;;9.02;7.60;;;5.60;57.30;;;;;;5077683;28;20379;-74
2023/11/29 10:57:50;;;;;;;10.10;7.75;;;5.70;57.00;;;;;;5073757;28;20391;-73
2023/11/29 11:00:18;;;;;;;12.60;7.70;;;5.70;57.00;;;;;;5075612;28;20402;-74
2023/11/29 11:02:48;;;;;;;11.30;7.25;;;5.60;56.00;;;;;;5075429;28;20418;-73
2023/11/29 11:05:18;;;;;;;9.15;7.18;;;5.50;57.30;;;;;;5074437;28;20384;-74
2023/11/29 11:07:47;;;;;;;9.63;7.43;;;5.60;57.10;;;;;;5077404;28;20380;-74
2023/11/29 11:10:15;;;;;;;9.50;7.40;;;5.50;56.90;;;;;;5075058;28;20384;-74
2023/11/29 11:12:42;;;;;;;9.23;7.80;;;5.40;57.80;;;;;;5075711;28;20421;-73
2023/11/29 11:15:24;;;;;;;9.77;7.13;;;5.30;60.40;;;;;;5077288;28;20456;-74
2023/11/29 11:18:02;;;;;;;12.02;8.00;;;5.20;60.70;;;;;;5086700;28;20403;-74
2023/11/29 11:20:56;;;;;;;11.82;10.50;;;4.70;71.40;;;;;;5091383;28;20411;-74
2023/11/29 11:23:26;;;;;;;12.10;10.77;;;4.30;80.60;;;;;;5089426;28;20372;-73
2023/11/29 11:25:55;;;;;;;12.80;11.50;;;3.90;86.70;;;;;;5089769;28;20375;-74
2023/11/29 11:28:32;;;;;;;11.60;10.38;;;3.70;90.50;;;;;;5086715;28;20878;-73
2023/11/29 11:31:02;;;;;;;8.88;7.57;;;3.50;91.80;;;;;;5087144;28;20452;-72
2023/11/29 11:33:52;;;;;;;7.95;7.15;;;3.20;93.30;;;;;;5087110;28;20391;-73
2023/11/29 11:36:20;;;;;;;10.05;8.20;;;3.10;98.50;;;;;;5086573;28;20376;-73
2023/11/29 11:38:45;;;;;;;7.63;6.30;;;3.10;99.90;;;;;;5088675;28;20407;-73
2023/11/29 11:41:11;;;;;;;7.68;5.60;;;3.20;99.90;;;;;;5086439;28;20395;-73
2023/11/29 11:43:37;;;;;;;6.30;5.60;;;3.40;99.90;;;;;;5087010;28;20394;-73
2023/11/29 11:46:02;;;;;;;5.60;5.00;;;3.50;99.90;;;;;;5088131;28;20493;-74
2023/11/29 11:48:30;;;;;;;5.85;5.30;;;3.60;99.90;;;;;;5087475;28;20391;-73
2023/11/29 11:50:56;;;;;;;6.93;6.32;;;3.80;99.90;;;;;;5086119;28;20391;-72
2023/11/29 11:53:22;;;;;;;8.37;7.47;;;3.80;98.60;;;;;;5086845;28;20426;-74
2023/11/29 11:55:49;;;;;;;9.40;8.50;;;3.90;97.30;;;;;;5085727;28;20826;-75
2023/11/29 11:58:15;;;;;;;9.35;8.38;;;4.00;96.50;;;;;;5088816;28;20396;-73
2023/11/29 12:00:41;;;;;;;9.40;8.50;;;4.00;93.30;;;;;;5077088;28;20457;-74
2023/11/29 12:03:07;;;;;;;9.48;8.30;;;4.10;91.60;;;;;;5076535;28;20383;-75
2023/11/29 12:05:33;;;;;;;8.07;7.28;;;4.20;85.90;;;;;;5075654;28;20384;-74
2023/11/29 12:07:59;;;;;;;9.05;8.10;;;4.10;85.60;;;;;;5076401;28;20411;-73
2023/11/29 12:10:25;;;;;;;9.45;8.55;;;4.10;86.40;;;;;;5073152;28;20403;-73
2023/11/29 12:12:50;;;;;;;10.10;8.95;;;4.20;81.90;;;;;;5073913;28;20437;-75
2023/11/29 12:15:17;;;;;;;9.80;8.60;;;4.30;81.10;;;;;;5074075;28;20466;-73
2023/11/29 12:17:43;;;;;;;10.30;9.30;;;4.30;80.30;;;;;;5073356;28;20405;-75
2023/11/29 12:20:11;;;;;;;9.90;8.95;;;4.40;81.50;;;;;;5074804;28;20744;-74
2023/11/29 12:22:41;;;;;;;11.27;9.40;;;4.40;74.60;;;;;;5071468;28;20380;-75
2023/11/29 12:25:15;;;;;;;9.60;8.50;;;4.50;77.90;;;;;;5072854;28;20395;-74
2023/11/29 12:27:45;;;;;;;10.45;8.88;;;4.60;72.10;;;;;;5073084;28;20388;-76
2023/11/29 12:30:11;;;;;;;9.70;7.90;;;4.60;72.10;;;;;;5073458;28;20380;-73
2023/11/29 12:32:38;;;;;;;9.07;8.18;;;4.70;72.10;;;;;;5073201;28;20384;-75
2023/11/29 12:35:06;;;;;;;10.63;8.70;;;4.80;70.00;;;;;;5073783;28;20407;-73
2023/11/29 12:37:33;;;;;;;9.95;7.95;;;4.80;67.20;;;;;;5075176;28;20415;-73